sensor_id;sensor_type;location;lat;lon;timestamp;pressure;altitude;pressure_sealevel;temperature;humidity
79150;BME280;68563;45.644;13.782;2024-01-30T00:00:53;103001.66;;;6.86;45.64
79150;BME280;68563;45.644;13.782;2024-01-30T00:03:18;102997.91;;;6.78;48.32
79150;BME280;68563;45.644;13.782;2024-01-30T00:05:44;102991.75;;;6.74;47.57
79150;BME280;68563;45.644;13.782;2024-01-30T00:08:09;102995.34;;;6.78;48.54
79150;BME280;68563;45.644;13.782;2024-01-30T00:10:34;102994.56;;;6.80;47.77
79150;BME280;68563;45.644;13.782;2024-01-30T00:13:00;102997.88;;;6.99;43.35
79150;BME280;68563;45.644;13.782;2024-01-30T00:15:25;102996.34;;;7.04;43.25
79150;BME280;68563;45.644;13.782;2024-01-30T00:17:51;103000.59;;;7.02;44.75
79150;BME280;68563;45.644;13.782;2024-01-30T00:20:17;102994.94;;;6.90;47.11
79150;BME280;68563;45.644;13.782;2024-01-30T00:22:43;103007.22;;;6.97;48.12
79150;BME280;68563;45.644;13.782;2024-01-30T00:25:08;103002.75;;;6.91;48.01
79150;BME280;68563;45.644;13.782;2024-01-30T00:27:33;102990.34;;;6.82;47.05
79150;BME280;68563;45.644;13.782;2024-01-30T00:29:59;103004.06;;;6.81;48.63
79150;BME280;68563;45.644;13.782;2024-01-30T00:32:24;103007.25;;;6.76;52.16
79150;BME280;68563;45.644;13.782;2024-01-30T00:34:50;103009.69;;;6.73;53.10
79150;BME280;68563;45.644;13.782;2024-01-30T00:37:15;103004.63;;;6.74;52.91
79150;BME280;68563;45.644;13.782;2024-01-30T00:39:40;102999.97;;;6.65;53.86
79150;BME280;68563;45.644;13.782;2024-01-30T00:42:06;103009.19;;;6.60;54.92
79150;BME280;68563;45.644;13.782;2024-01-30T00:44:35;103011.72;;;6.59;55.57
79150;BME280;68563;45.644;13.782;2024-01-30T00:47:00;103011.53;;;6.54;56.23
79150;BME280;68563;45.644;13.782;2024-01-30T00:49:25;103002.50;;;6.43;56.55
79150;BME280;68563;45.644;13.782;2024-01-30T00:51:51;103007.69;;;6.44;57.27
79150;BME280;68563;45.644;13.782;2024-01-30T00:54:16;102998.22;;;6.43;57.54
79150;BME280;68563;45.644;13.782;2024-01-30T00:56:42;102999.78;;;6.39;58.28
79150;BME280;68563;45.644;13.782;2024-01-30T00:59:07;103008.31;;;6.38;58.51
79150;BME280;68563;45.644;13.782;2024-01-30T01:01:33;103007.28;;;6.35;59.24
79150;BME280;68563;45.644;13.782;2024-01-30T01:03:58;102999.56;;;6.35;59.70
79150;BME280;68563;45.644;13.782;2024-01-30T01:06:24;102990.59;;;6.25;59.91
79150;BME280;68563;45.644;13.782;2024-01-30T01:08:49;102996.00;;;6.31;60.02
79150;BME280;68563;45.644;13.782;2024-01-30T01:11:15;102995.78;;;6.27;61.27
79150;BME280;68563;45.644;13.782;2024-01-30T01:13:40;102996.00;;;6.31;59.85
79150;BME280;68563;45.644;13.782;2024-01-30T01:16:06;102991.59;;;6.29;59.80
79150;BME280;68563;45.644;13.782;2024-01-30T01:18:31;102992.34;;;6.26;59.21
79150;BME280;68563;45.644;13.782;2024-01-30T01:20:56;103004.50;;;6.30;60.09
79150;BME280;68563;45.644;13.782;2024-01-30T01:23:22;102977.50;;;6.20;60.61
79150;BME280;68563;45.644;13.782;2024-01-30T01:25:47;102988.22;;;6.30;60.14
79150;BME280;68563;45.644;13.782;2024-01-30T01:28:13;102984.63;;;6.26;60.16
79150;BME280;68563;45.644;13.782;2024-01-30T01:30:38;102981.19;;;6.26;60.51
79150;BME280;68563;45.644;13.782;2024-01-30T01:33:04;102980.19;;;6.22;60.34
79150;BME280;68563;45.644;13.782;2024-01-30T01:35:29;102983.63;;;6.22;59.60
79150;BME280;68563;45.644;13.782;2024-01-30T01:37:55;102980.09;;;6.20;59.49
79150;BME280;68563;45.644;13.782;2024-01-30T01:40:24;102964.66;;;6.20;58.03
79150;BME280;68563;45.644;13.782;2024-01-30T01:42:51;102973.19;;;6.19;58.47
79150;BME280;68563;45.644;13.782;2024-01-30T01:45:20;102966.31;;;6.18;57.99
79150;BME280;68563;45.644;13.782;2024-01-30T01:47:55;102973.13;;;6.18;57.55
79150;BME280;68563;45.644;13.782;2024-01-30T01:50:21;102954.16;;;6.16;57.44
79150;BME280;68563;45.644;13.782;2024-01-30T01:52:47;102959.19;;;6.13;56.64
79150;BME280;68563;45.644;13.782;2024-01-30T01:55:13;102957.28;;;6.09;56.89
79150;BME280;68563;45.644;13.782;2024-01-30T01:57:40;102959.06;;;6.10;57.09
79150;BME280;68563;45.644;13.782;2024-01-30T02:00:06;102959.94;;;6.10;56.74
79150;BME280;68563;45.644;13.782;2024-01-30T02:02:35;102953.78;;;6.06;57.38
79150;BME280;68563;45.644;13.782;2024-01-30T02:05:00;102952.78;;;6.03;57.60
79150;BME280;68563;45.644;13.782;2024-01-30T02:07:27;102965.91;;;6.09;57.97
79150;BME280;68563;45.644;13.782;2024-01-30T02:09:53;102958.03;;;6.06;57.94
79150;BME280;68563;45.644;13.782;2024-01-30T02:12:18;102966.50;;;6.03;58.09
79150;BME280;68563;45.644;13.782;2024-01-30T02:14:45;102956.38;;;6.06;57.67
79150;BME280;68563;45.644;13.782;2024-01-30T02:17:11;102963.31;;;6.09;57.61
79150;BME280;68563;45.644;13.782;2024-01-30T02:19:37;102958.03;;;6.06;57.70
79150;BME280;68563;45.644;13.782;2024-01-30T02:22:03;102952.63;;;6.00;58.57
79150;BME280;68563;45.644;13.782;2024-01-30T02:24:28;102952.63;;;6.00;58.62
79150;BME280;68563;45.644;13.782;2024-01-30T02:26:53;102955.13;;;5.98;58.82
79150;BME280;68563;45.644;13.782;2024-01-30T02:29:19;102963.19;;;6.06;58.81
79150;BME280;68563;45.644;13.782;2024-01-30T02:31:44;102945.59;;;5.96;59.20
79150;BME280;68563;45.644;13.782;2024-01-30T02:34:11;102955.56;;;6.07;58.64
79150;BME280;68563;45.644;13.782;2024-01-30T02:36:36;102947.75;;;6.06;58.44
79150;BME280;68563;45.644;13.782;2024-01-30T02:39:02;102943.16;;;5.99;58.58
79150;BME280;68563;45.644;13.782;2024-01-30T02:41:27;102944.78;;;5.97;59.35
79150;BME280;68563;45.644;13.782;2024-01-30T02:43:53;102949.41;;;6.04;59.17
79150;BME280;68563;45.644;13.782;2024-01-30T02:46:18;102934.41;;;5.95;59.41
79150;BME280;68563;45.644;13.782;2024-01-30T02:48:43;102951.38;;;5.91;59.68
79150;BME280;68563;45.644;13.782;2024-01-30T02:51:09;102951.38;;;5.91;59.62
79150;BME280;68563;45.644;13.782;2024-01-30T02:53:34;102944.31;;;5.86;59.90
79150;BME280;68563;45.644;13.782;2024-01-30T02:56:00;102946.78;;;5.84;59.80
79150;BME280;68563;45.644;13.782;2024-01-30T02:58:25;102942.28;;;5.79;60.35
79150;BME280;68563;45.644;13.782;2024-01-30T03:00:51;102953.31;;;5.76;60.21
79150;BME280;68563;45.644;13.782;2024-01-30T03:03:16;102951.50;;;5.73;60.12
79150;BME280;68563;45.644;13.782;2024-01-30T03:05:41;102944.38;;;5.68;59.90
79150;BME280;68563;45.644;13.782;2024-01-30T03:08:07;102951.41;;;5.72;60.24
79150;BME280;68563;45.644;13.782;2024-01-30T03:10:32;102945.72;;;5.79;60.33
79150;BME280;68563;45.644;13.782;2024-01-30T03:12:57;102955.34;;;5.83;60.50
79150;BME280;68563;45.644;13.782;2024-01-30T03:15:23;102948.38;;;5.81;60.80
79150;BME280;68563;45.644;13.782;2024-01-30T03:17:48;102950.81;;;5.78;61.91
79150;BME280;68563;45.644;13.782;2024-01-30T03:20:13;102950.75;;;5.76;61.52
79150;BME280;68563;45.644;13.782;2024-01-30T03:22:39;102947.44;;;5.79;60.92
79150;BME280;68563;45.644;13.782;2024-01-30T03:25:04;102942.06;;;5.74;60.87
79150;BME280;68563;45.644;13.782;2024-01-30T03:27:30;102946.41;;;5.75;60.47
79150;BME280;68563;45.644;13.782;2024-01-30T03:29:55;102940.00;;;5.65;60.43
79150;BME280;68563;45.644;13.782;2024-01-30T03:32:21;102941.94;;;5.71;59.63
79150;BME280;68563;45.644;13.782;2024-01-30T03:34:46;102927.34;;;5.70;59.61
79150;BME280;68563;45.644;13.782;2024-01-30T03:37:11;102940.91;;;5.67;58.63
79150;BME280;68563;45.644;13.782;2024-01-30T03:39:37;102947.16;;;5.72;59.87
79150;BME280;68563;45.644;13.782;2024-01-30T03:42:02;102935.78;;;5.67;59.03
79150;BME280;68563;45.644;13.782;2024-01-30T03:44:28;102943.03;;;5.76;58.96
79150;BME280;68563;45.644;13.782;2024-01-30T03:46:53;102939.56;;;5.75;59.36
79150;BME280;68563;45.644;13.782;2024-01-30T03:49:18;102929.38;;;5.77;58.45
79150;BME280;68563;45.644;13.782;2024-01-30T03:51:44;102941.38;;;5.78;57.91
79150;BME280;68563;45.644;13.782;2024-01-30T03:54:09;102937.75;;;5.73;56.97
79150;BME280;68563;45.644;13.782;2024-01-30T03:56:35;102930.03;;;5.73;56.06
79150;BME280;68563;45.644;13.782;2024-01-30T03:59:00;102930.94;;;5.73;54.60
79150;BME280;68563;45.644;13.782;2024-01-30T04:01:27;102939.66;;;5.77;55.31
79150;BME280;68563;45.644;13.782;2024-01-30T04:03:53;102942.22;;;5.77;55.43
79150;BME280;68563;45.644;13.782;2024-01-30T04:06:18;102935.31;;;5.76;54.95
79150;BME280;68563;45.644;13.782;2024-01-30T04:08:44;102929.00;;;5.69;54.73
79150;BME280;68563;45.644;13.782;2024-01-30T04:11:09;102933.63;;;5.77;54.20
79150;BME280;68563;45.644;13.782;2024-01-30T04:13:34;102928.41;;;5.75;54.56
79150;BME280;68563;45.644;13.782;2024-01-30T04:16:01;102932.47;;;5.70;53.94
79150;BME280;68563;45.644;13.782;2024-01-30T04:18:27;102936.88;;;5.72;53.77
79150;BME280;68563;45.644;13.782;2024-01-30T04:20:52;102931.53;;;5.68;54.85
79150;BME280;68563;45.644;13.782;2024-01-30T04:23:18;102919.28;;;5.62;54.58
79150;BME280;68563;45.644;13.782;2024-01-30T04:25:43;102934.03;;;5.66;54.39
79150;BME280;68563;45.644;13.782;2024-01-30T04:28:09;102929.06;;;5.71;54.37
79150;BME280;68563;45.644;13.782;2024-01-30T04:30:34;102929.69;;;5.65;53.86
79150;BME280;68563;45.644;13.782;2024-01-30T04:33:00;102934.16;;;5.69;53.07
79150;BME280;68563;45.644;13.782;2024-01-30T04:35:25;102931.06;;;5.57;53.49
79150;BME280;68563;45.644;13.782;2024-01-30T04:37:52;102929.50;;;5.61;53.50
79150;BME280;68563;45.644;13.782;2024-01-30T04:40:18;102937.88;;;5.56;53.59
79150;BME280;68563;45.644;13.782;2024-01-30T04:42:43;102935.19;;;5.53;53.97
79150;BME280;68563;45.644;13.782;2024-01-30T04:45:09;102933.09;;;5.45;52.62
79150;BME280;68563;45.644;13.782;2024-01-30T04:47:34;102932.13;;;5.42;51.99
79150;BME280;68563;45.644;13.782;2024-01-30T04:50:00;102943.25;;;5.43;52.02
79150;BME280;68563;45.644;13.782;2024-01-30T04:52:26;102945.78;;;5.41;52.22
79150;BME280;68563;45.644;13.782;2024-01-30T04:54:51;102948.41;;;5.43;52.19
79150;BME280;68563;45.644;13.782;2024-01-30T04:57:17;102944.91;;;5.41;52.56
79150;BME280;68563;45.644;13.782;2024-01-30T04:59:42;102945.44;;;5.53;52.60
79150;BME280;68563;45.644;13.782;2024-01-30T05:02:07;102932.44;;;5.50;52.95
79150;BME280;68563;45.644;13.782;2024-01-30T05:04:33;102939.88;;;5.44;52.84
79150;BME280;68563;45.644;13.782;2024-01-30T05:06:58;102943.69;;;5.52;52.83
79150;BME280;68563;45.644;13.782;2024-01-30T05:09:24;102945.41;;;5.52;53.89
79150;BME280;68563;45.644;13.782;2024-01-30T05:11:49;102942.66;;;5.49;54.03
79150;BME280;68563;45.644;13.782;2024-01-30T05:14:14;102947.16;;;5.53;53.80
79150;BME280;68563;45.644;13.782;2024-01-30T05:16:40;102940.16;;;5.50;54.04
79150;BME280;68563;45.644;13.782;2024-01-30T05:19:06;102945.41;;;5.52;54.74
79150;BME280;68563;45.644;13.782;2024-01-30T05:21:31;102949.63;;;5.51;56.00
79150;BME280;68563;45.644;13.782;2024-01-30T05:23:57;102950.59;;;5.53;54.73
79150;BME280;68563;45.644;13.782;2024-01-30T05:26:22;102950.59;;;5.53;54.92
79150;BME280;68563;45.644;13.782;2024-01-30T05:28:48;102940.03;;;5.47;53.36
79150;BME280;68563;45.644;13.782;2024-01-30T05:31:13;102952.34;;;5.54;53.09
79150;BME280;68563;45.644;13.782;2024-01-30T05:33:40;102954.13;;;5.55;54.68
79150;BME280;68563;45.644;13.782;2024-01-30T05:36:05;102955.41;;;5.65;53.11
79150;BME280;68563;45.644;13.782;2024-01-30T05:38:31;102959.13;;;5.52;54.16
79150;BME280;68563;45.644;13.782;2024-01-30T05:40:57;102954.56;;;5.47;54.31
79150;BME280;68563;45.644;13.782;2024-01-30T05:43:25;102951.81;;;5.42;54.92
79150;BME280;68563;45.644;13.782;2024-01-30T05:45:51;102958.56;;;5.40;54.42
79150;BME280;68563;45.644;13.782;2024-01-30T05:48:17;102947.09;;;5.33;54.67
79150;BME280;68563;45.644;13.782;2024-01-30T05:50:43;102959.44;;;5.40;55.74
79150;BME280;68563;45.644;13.782;2024-01-30T05:53:08;102965.47;;;5.41;55.75
79150;BME280;68563;45.644;13.782;2024-01-30T05:55:34;102958.94;;;5.30;55.26
79150;BME280;68563;45.644;13.782;2024-01-30T05:57:59;102969.97;;;5.27;55.63
79150;BME280;68563;45.644;13.782;2024-01-30T06:00:24;102978.28;;;5.21;55.88
79150;BME280;68563;45.644;13.782;2024-01-30T06:02:50;102980.97;;;5.24;56.00
79150;BME280;68563;45.644;13.782;2024-01-30T06:05:15;102979.22;;;5.23;56.29
79150;BME280;68563;45.644;13.782;2024-01-30T06:07:40;102988.41;;;5.18;56.91
79150;BME280;68563;45.644;13.782;2024-01-30T06:10:06;102985.91;;;5.20;56.86
79150;BME280;68563;45.644;13.782;2024-01-30T06:12:32;102975.34;;;5.14;57.14
79150;BME280;68563;45.644;13.782;2024-01-30T06:14:58;102981.22;;;5.11;56.94
79150;BME280;68563;45.644;13.782;2024-01-30T06:17:23;102982.81;;;5.09;57.13
79150;BME280;68563;45.644;13.782;2024-01-30T06:19:49;102980.84;;;5.21;57.40
79150;BME280;68563;45.644;13.782;2024-01-30T06:22:15;102988.56;;;5.21;57.71
79150;BME280;68563;45.644;13.782;2024-01-30T06:24:41;102969.91;;;5.25;57.78
79150;BME280;68563;45.644;13.782;2024-01-30T06:27:06;102983.81;;;5.31;57.89
79150;BME280;68563;45.644;13.782;2024-01-30T06:29:31;102977.56;;;5.43;59.15
79150;BME280;68563;45.644;13.782;2024-01-30T06:31:57;102977.84;;;5.50;56.81
79150;BME280;68563;45.644;13.782;2024-01-30T06:34:22;102977.50;;;5.42;55.60
79150;BME280;68563;45.644;13.782;2024-01-30T06:36:47;102988.81;;;5.46;55.19
79150;BME280;68563;45.644;13.782;2024-01-30T06:39:13;102994.81;;;5.46;55.46
79150;BME280;68563;45.644;13.782;2024-01-30T06:41:38;102993.84;;;5.44;55.45
79150;BME280;68563;45.644;13.782;2024-01-30T06:44:04;103002.47;;;5.45;55.58
79150;BME280;68563;45.644;13.782;2024-01-30T06:46:31;102998.88;;;5.41;55.63
79150;BME280;68563;45.644;13.782;2024-01-30T06:48:57;103009.91;;;5.38;55.42
79150;BME280;68563;45.644;13.782;2024-01-30T06:51:23;103007.91;;;5.33;55.47
79150;BME280;68563;45.644;13.782;2024-01-30T06:53:48;103019.78;;;5.31;55.64
79150;BME280;68563;45.644;13.782;2024-01-30T06:56:14;103011.53;;;5.18;55.55
79150;BME280;68563;45.644;13.782;2024-01-30T06:58:39;103013.22;;;5.18;55.37
79150;BME280;68563;45.644;13.782;2024-01-30T07:01:06;103018.41;;;5.19;54.90
79150;BME280;68563;45.644;13.782;2024-01-30T07:03:31;103015.13;;;5.22;54.65
79150;BME280;68563;45.644;13.782;2024-01-30T07:05:57;103022.88;;;5.23;54.92
79150;BME280;68563;45.644;13.782;2024-01-30T07:08:22;103014.44;;;5.26;55.05
79150;BME280;68563;45.644;13.782;2024-01-30T07:10:49;103025.63;;;5.26;54.81
79150;BME280;68563;45.644;13.782;2024-01-30T07:13:15;103028.06;;;5.43;54.81
79150;BME280;68563;45.644;13.782;2024-01-30T07:15:42;103025.47;;;5.99;53.61
79150;BME280;68563;45.644;13.782;2024-01-30T07:18:07;103019.94;;;6.71;52.45
79150;BME280;68563;45.644;13.782;2024-01-30T07:20:33;103014.84;;;7.38;50.99
79150;BME280;68563;45.644;13.782;2024-01-30T07:22:58;103011.13;;;8.01;49.41
79150;BME280;68563;45.644;13.782;2024-01-30T07:25:24;103007.41;;;8.68;48.15
79150;BME280;68563;45.644;13.782;2024-01-30T07:27:53;103006.28;;;9.15;47.11
79150;BME280;68563;45.644;13.782;2024-01-30T07:30:19;102991.81;;;9.81;45.41
79150;BME280;68563;45.644;13.782;2024-01-30T07:32:45;103004.41;;;10.32;44.20
79150;BME280;68563;45.644;13.782;2024-01-30T07:35:11;103004.28;;;10.61;43.28
79150;BME280;68563;45.644;13.782;2024-01-30T07:37:36;103005.53;;;10.77;43.32
79150;BME280;68563;45.644;13.782;2024-01-30T07:40:03;103011.69;;;10.81;43.27
79150;BME280;68563;45.644;13.782;2024-01-30T07:42:28;103002.50;;;10.59;44.37
79150;BME280;68563;45.644;13.782;2024-01-30T07:44:54;103014.22;;;10.43;45.08
79150;BME280;68563;45.644;13.782;2024-01-30T07:47:19;103008.19;;;10.12;46.38
79150;BME280;68563;45.644;13.782;2024-01-30T07:49:44;103013.53;;;9.86;45.99
79150;BME280;68563;45.644;13.782;2024-01-30T07:52:10;103018.81;;;9.60;46.47
79150;BME280;68563;45.644;13.782;2024-01-30T07:54:55;103025.81;;;9.34;46.63
79150;BME280;68563;45.644;13.782;2024-01-30T07:57:21;103027.97;;;9.20;47.46
79150;BME280;68563;45.644;13.782;2024-01-30T07:59:46;103036.22;;;9.08;47.96
79150;BME280;68563;45.644;13.782;2024-01-30T08:02:12;103034.19;;;8.98;48.93
79150;BME280;68563;45.644;13.782;2024-01-30T08:04:38;103025.94;;;8.82;49.14
79150;BME280;68563;45.644;13.782;2024-01-30T08:07:03;103028.47;;;8.81;49.83
79150;BME280;68563;45.644;13.782;2024-01-30T08:09:29;103029.16;;;8.75;49.64
79150;BME280;68563;45.644;13.782;2024-01-30T08:11:54;103018.41;;;8.62;49.68
79150;BME280;68563;45.644;13.782;2024-01-30T08:14:20;103023.47;;;8.59;50.06
79150;BME280;68563;45.644;13.782;2024-01-30T08:16:45;103007.56;;;8.47;50.07
79150;BME280;68563;45.644;13.782;2024-01-30T08:19:11;103017.13;;;8.50;50.75
79150;BME280;68563;45.644;13.782;2024-01-30T08:21:36;103036.13;;;8.52;51.71
79150;BME280;68563;45.644;13.782;2024-01-30T08:24:03;103029.13;;;8.48;53.60
79150;BME280;68563;45.644;13.782;2024-01-30T08:26:34;103022.19;;;8.46;54.57
79150;BME280;68563;45.644;13.782;2024-01-30T08:29:00;103029.22;;;8.51;55.65
79150;BME280;68563;45.644;13.782;2024-01-30T08:31:26;103017.25;;;8.53;55.76
79150;BME280;68563;45.644;13.782;2024-01-30T08:33:51;103014.13;;;8.63;55.78
79150;BME280;68563;45.644;13.782;2024-01-30T08:36:17;103026.31;;;8.67;55.99
79150;BME280;68563;45.644;13.782;2024-01-30T08:38:43;103017.44;;;8.59;55.79
79150;BME280;68563;45.644;13.782;2024-01-30T08:41:08;103022.50;;;8.56;56.06
79150;BME280;68563;45.644;13.782;2024-01-30T08:43:34;103011.56;;;8.39;56.48
79150;BME280;68563;45.644;13.782;2024-01-30T08:46:00;103022.78;;;8.39;56.28
79150;BME280;68563;45.644;13.782;2024-01-30T08:48:26;103025.25;;;8.36;55.70
79150;BME280;68563;45.644;13.782;2024-01-30T08:50:51;103021.63;;;8.31;55.87
79150;BME280;68563;45.644;13.782;2024-01-30T08:53:16;103021.44;;;8.25;56.10
79150;BME280;68563;45.644;13.782;2024-01-30T08:55:42;103019.47;;;8.18;56.24
79150;BME280;68563;45.644;13.782;2024-01-30T08:58:07;103020.06;;;8.10;56.59
79150;BME280;68563;45.644;13.782;2024-01-30T09:00:33;103014.78;;;8.07;56.15
79150;BME280;68563;45.644;13.782;2024-01-30T09:02:58;103016.63;;;8.10;55.86
79150;BME280;68563;45.644;13.782;2024-01-30T09:05:24;103019.03;;;8.05;55.63
79150;BME280;68563;45.644;13.782;2024-01-30T09:07:49;103019.94;;;8.07;55.54
79150;BME280;68563;45.644;13.782;2024-01-30T09:10:14;103024.03;;;8.01;55.06
79150;BME280;68563;45.644;13.782;2024-01-30T09:12:41;103018.59;;;7.93;54.51
79150;BME280;68563;45.644;13.782;2024-01-30T09:15:06;103027.25;;;7.95;54.15
79150;BME280;68563;45.644;13.782;2024-01-30T09:17:32;103022.91;;;7.94;54.06
79150;BME280;68563;45.644;13.782;2024-01-30T09:19:58;103029.78;;;7.93;54.13
79150;BME280;68563;45.644;13.782;2024-01-30T09:22:24;103013.19;;;7.87;54.16
79150;BME280;68563;45.644;13.782;2024-01-30T09:24:49;103030.34;;;7.85;55.43
79150;BME280;68563;45.644;13.782;2024-01-30T09:27:15;103035.50;;;7.85;56.46
79150;BME280;68563;45.644;13.782;2024-01-30T09:29:40;103034.41;;;7.79;57.58
79150;BME280;68563;45.644;13.782;2024-01-30T09:32:06;103033.56;;;7.79;58.38
79150;BME280;68563;45.644;13.782;2024-01-30T09:34:32;103045.47;;;7.75;59.23
79150;BME280;68563;45.644;13.782;2024-01-30T09:36:58;103041.63;;;7.64;59.44
79150;BME280;68563;45.644;13.782;2024-01-30T09:39:25;103047.69;;;7.66;60.03
79150;BME280;68563;45.644;13.782;2024-01-30T09:42:05;103057.94;;;7.64;60.07
79150;BME280;68563;45.644;13.782;2024-01-30T09:44:32;103054.31;;;7.59;59.89
79150;BME280;68563;45.644;13.782;2024-01-30T09:46:59;103060.06;;;7.52;60.19
79150;BME280;68563;45.644;13.782;2024-01-30T09:49:30;103060.06;;;7.52;59.60
79150;BME280;68563;45.644;13.782;2024-01-30T09:51:57;103065.03;;;7.47;59.58
79150;BME280;68563;45.644;13.782;2024-01-30T09:54:23;103055.56;;;7.46;59.76
79150;BME280;68563;45.644;13.782;2024-01-30T09:56:48;103058.75;;;7.41;60.01
79150;BME280;68563;45.644;13.782;2024-01-30T09:59:14;103063.75;;;7.36;60.05
79150;BME280;68563;45.644;13.782;2024-01-30T10:01:40;103060.38;;;7.37;60.09
79150;BME280;68563;45.644;13.782;2024-01-30T10:04:07;103058.66;;;7.38;59.47
79150;BME280;68563;45.644;13.782;2024-01-30T10:06:32;103046.22;;;7.27;59.38
79150;BME280;68563;45.644;13.782;2024-01-30T10:08:57;103062.69;;;7.31;58.75
79150;BME280;68563;45.644;13.782;2024-01-30T10:11:23;103055.06;;;7.34;58.67
79150;BME280;68563;45.644;13.782;2024-01-30T10:13:48;103051.56;;;7.32;58.53
79150;BME280;68563;45.644;13.782;2024-01-30T10:16:14;103047.28;;;7.32;58.28
79150;BME280;68563;45.644;13.782;2024-01-30T10:18:42;103044.81;;;7.35;57.68
79150;BME280;68563;45.644;13.782;2024-01-30T10:21:08;103033.69;;;7.37;57.43
79150;BME280;68563;45.644;13.782;2024-01-30T10:23:34;103043.38;;;7.42;56.77
79150;BME280;68563;45.644;13.782;2024-01-30T10:25:59;103028.59;;;7.38;56.17
79150;BME280;68563;45.644;13.782;2024-01-30T10:28:27;103025.19;;;7.39;56.23
79150;BME280;68563;45.644;13.782;2024-01-30T10:31:01;103021.81;;;7.40;56.07
79150;BME280;68563;45.644;13.782;2024-01-30T10:33:27;103024.66;;;7.48;56.17
79150;BME280;68563;45.644;13.782;2024-01-30T10:36:00;103016.91;;;7.48;55.49
79150;BME280;68563;45.644;13.782;2024-01-30T10:38:28;103020.59;;;7.53;54.98
79150;BME280;68563;45.644;13.782;2024-01-30T10:40:57;103024.06;;;7.55;55.21
79150;BME280;68563;45.644;13.782;2024-01-30T10:43:24;103010.25;;;7.53;55.12
79150;BME280;68563;45.644;13.782;2024-01-30T10:45:57;103013.84;;;7.57;55.01
79150;BME280;68563;45.644;13.782;2024-01-30T10:48:29;103014.69;;;7.57;56.05
79150;BME280;68563;45.644;13.782;2024-01-30T10:50:58;103016.47;;;7.58;56.94
79150;BME280;68563;45.644;13.782;2024-01-30T10:53:25;103015.59;;;7.58;57.93
79150;BME280;68563;45.644;13.782;2024-01-30T10:55:52;103009.50;;;7.56;58.48
79150;BME280;68563;45.644;13.782;2024-01-30T10:58:19;103007.72;;;7.55;58.72
79150;BME280;68563;45.644;13.782;2024-01-30T11:00:45;103007.56;;;7.50;59.07
79150;BME280;68563;45.644;13.782;2024-01-30T11:03:11;103005.97;;;7.54;58.84
79150;BME280;68563;45.644;13.782;2024-01-30T11:05:40;103006.75;;;7.51;58.85
79150;BME280;68563;45.644;13.782;2024-01-30T11:08:22;103009.44;;;7.54;59.16
79150;BME280;68563;45.644;13.782;2024-01-30T11:10:49;102996.28;;;7.48;58.55
79150;BME280;68563;45.644;13.782;2024-01-30T11:13:15;102992.00;;;7.47;58.55
79150;BME280;68563;45.644;13.782;2024-01-30T11:15:41;102998.13;;;7.50;58.01
79150;BME280;68563;45.644;13.782;2024-01-30T11:18:06;102992.00;;;7.47;57.43
79150;BME280;68563;45.644;13.782;2024-01-30T11:20:32;102993.84;;;7.51;56.30
79150;BME280;68563;45.644;13.782;2024-01-30T11:22:58;102986.00;;;7.48;55.68
79150;BME280;68563;45.644;13.782;2024-01-30T11:25:24;102988.75;;;7.53;54.35
79150;BME280;68563;45.644;13.782;2024-01-30T11:27:52;102991.31;;;7.53;53.86
79150;BME280;68563;45.644;13.782;2024-01-30T11:30:25;102992.25;;;7.55;54.03
79150;BME280;68563;45.644;13.782;2024-01-30T11:33:04;102984.53;;;7.55;53.47
79150;BME280;68563;45.644;13.782;2024-01-30T11:35:34;102980.31;;;7.57;53.50
79150;BME280;68563;45.644;13.782;2024-01-30T11:38:01;102976.91;;;7.58;53.87
79150;BME280;68563;45.644;13.782;2024-01-30T11:40:30;102973.44;;;7.57;53.11
79150;BME280;68563;45.644;13.782;2024-01-30T11:42:58;102972.81;;;7.63;53.82
79150;BME280;68563;45.644;13.782;2024-01-30T11:45:24;102971.91;;;7.62;53.22
79150;BME280;68563;45.644;13.782;2024-01-30T11:47:49;102961.59;;;7.62;53.53
79150;BME280;68563;45.644;13.782;2024-01-30T11:50:15;102956.59;;;7.67;53.00
79150;BME280;68563;45.644;13.782;2024-01-30T11:52:40;102963.56;;;7.70;51.75
79150;BME280;68563;45.644;13.782;2024-01-30T11:55:07;102959.31;;;7.70;51.79
79150;BME280;68563;45.644;13.782;2024-01-30T11:57:33;102957.63;;;7.72;51.86
79150;BME280;68563;45.644;13.782;2024-01-30T12:00:00;102950.84;;;7.74;51.11
79150;BME280;68563;45.644;13.782;2024-01-30T12:02:26;102950.75;;;7.71;51.33
79150;BME280;68563;45.644;13.782;2024-01-30T12:04:51;102950.88;;;7.76;50.93
79150;BME280;68563;45.644;13.782;2024-01-30T12:07:17;102949.22;;;7.76;50.25
79150;BME280;68563;45.644;13.782;2024-01-30T12:09:42;102940.53;;;7.74;50.09
79150;BME280;68563;45.644;13.782;2024-01-30T12:12:16;102935.50;;;7.77;50.05
79150;BME280;68563;45.644;13.782;2024-01-30T12:14:42;102940.75;;;7.80;49.61
79150;BME280;68563;45.644;13.782;2024-01-30T12:17:07;102933.91;;;7.81;48.90
79150;BME280;68563;45.644;13.782;2024-01-30T12:19:34;102924.44;;;7.81;48.55
79150;BME280;68563;45.644;13.782;2024-01-30T12:21:59;102926.19;;;7.82;48.75
79150;BME280;68563;45.644;13.782;2024-01-30T12:24:26;102925.47;;;7.87;48.73
79150;BME280;68563;45.644;13.782;2024-01-30T12:26:52;102916.00;;;7.86;48.96
79150;BME280;68563;45.644;13.782;2024-01-30T12:29:20;102909.91;;;7.83;49.13
79150;BME280;68563;45.644;13.782;2024-01-30T12:31:46;102916.91;;;7.88;49.15
79150;BME280;68563;45.644;13.782;2024-01-30T12:34:14;102914.47;;;7.91;49.29
79150;BME280;68563;45.644;13.782;2024-01-30T12:36:42;102910.13;;;7.90;49.90
79150;BME280;68563;45.644;13.782;2024-01-30T12:39:11;102908.47;;;7.92;49.76
79150;BME280;68563;45.644;13.782;2024-01-30T12:41:36;102903.31;;;7.92;49.94
79150;BME280;68563;45.644;13.782;2024-01-30T12:44:02;102899.03;;;7.92;50.02